Terminal Aerodrome Forecast
Issued by NWS

Home | Current Version | Previous Version | Text Only | Print | Product List | Glossary On
Versions: 1 2 3 4 5 6 7 8 9 10 11 12 13 14 15 16 17 18 19 20 21
000
FTUS41 KBUF 231740
TAFJHW
TAF
KJHW 231740Z 2318/2418 32012G20KT P6SM FEW060
     FM232300 31004KT P6SM SKC
     FM240600 VRB02KT 2SM BR SKC
     FM241300 17004KT P6SM FEW250
     FM241600 21005KT P6SM FEW050 FEW200
      AMD LTD TO CLD VIS AND WIND=

USA.gov is the U.S. government's official web portal to all federal, state and local government web resources and services.